sensor_id;sensor_type;location;lat;lon;timestamp;pressure;altitude;pressure_sealevel;temperature
71081;BMP180;58740;50.672;18.690;2023-03-03T00:01:38;99282.00;;;0.60
71081;BMP180;58740;50.672;18.690;2023-03-03T00:04:06;99281.60;;;0.60
71081;BMP180;58740;50.672;18.690;2023-03-03T00:06:34;99279.20;;;0.60
71081;BMP180;58740;50.672;18.690;2023-03-03T00:09:01;99282.60;;;0.60
71081;BMP180;58740;50.672;18.690;2023-03-03T00:11:29;99285.40;;;0.60
71081;BMP180;58740;50.672;18.690;2023-03-03T00:13:57;99284.60;;;0.60
71081;BMP180;58740;50.672;18.690;2023-03-03T00:16:37;99281.80;;;0.50
71081;BMP180;58740;50.672;18.690;2023-03-03T00:19:15;99290.40;;;0.50
71081;BMP180;58740;50.672;18.690;2023-03-03T00:21:47;99300.20;;;0.40
71081;BMP180;58740;50.672;18.690;2023-03-03T00:24:35;99305.80;;;0.32
71081;BMP180;58740;50.672;18.690;2023-03-03T00:27:23;99306.60;;;0.20
71081;BMP180;58740;50.672;18.690;2023-03-03T00:29:57;99302.80;;;0.20
71081;BMP180;58740;50.672;18.690;2023-03-03T00:32:43;99294.40;;;0.12
71081;BMP180;58740;50.672;18.690;2023-03-03T00:35:32;99291.60;;;0.10
71081;BMP180;58740;50.672;18.690;2023-03-03T00:38:16;99287.40;;;0.10
71081;BMP180;58740;50.672;18.690;2023-03-03T00:40:46;99287.60;;;0.10
71081;BMP180;58740;50.672;18.690;2023-03-03T00:43:23;99290.40;;;0.10
71081;BMP180;58740;50.672;18.690;2023-03-03T00:45:54;99289.80;;;0.10
71081;BMP180;58740;50.672;18.690;2023-03-03T00:51:26;99280.80;;;0.10
71081;BMP180;58740;50.672;18.690;2023-03-03T00:53:56;99273.40;;;0.00
71081;BMP180;58740;50.672;18.690;2023-03-03T00:56:25;99269.20;;;0.00
71081;BMP180;58740;50.672;18.690;2023-03-03T00:58:54;99266.40;;;-0.10
71081;BMP180;58740;50.672;18.690;2023-03-03T01:01:21;99264.60;;;-0.10
71081;BMP180;58740;50.672;18.690;2023-03-03T01:03:52;99261.20;;;-0.20
71081;BMP180;58740;50.672;18.690;2023-03-03T01:06:19;99261.60;;;-0.20
71081;BMP180;58740;50.672;18.690;2023-03-03T01:08:47;99253.20;;;-0.20
71081;BMP180;58740;50.672;18.690;2023-03-03T01:11:21;99258.20;;;-0.24
71081;BMP180;58740;50.672;18.690;2023-03-03T01:13:52;99256.00;;;-0.30
71081;BMP180;58740;50.672;18.690;2023-03-03T01:16:20;99254.80;;;-0.40
71081;BMP180;58740;50.672;18.690;2023-03-03T01:18:48;99253.40;;;-0.40
71081;BMP180;58740;50.672;18.690;2023-03-03T01:21:16;99251.60;;;-0.42
71081;BMP180;58740;50.672;18.690;2023-03-03T01:23:43;99260.00;;;-0.50
71081;BMP180;58740;50.672;18.690;2023-03-03T01:26:12;99262.80;;;-0.58
71081;BMP180;58740;50.672;18.690;2023-03-03T01:28:39;99263.80;;;-0.70
71081;BMP180;58740;50.672;18.690;2023-03-03T01:31:08;99256.20;;;-0.78
71081;BMP180;58740;50.672;18.690;2023-03-03T01:33:36;99258.20;;;-0.80
71081;BMP180;58740;50.672;18.690;2023-03-03T01:36:05;99258.40;;;-0.86
71081;BMP180;58740;50.672;18.690;2023-03-03T01:38:37;99260.60;;;-0.90
71081;BMP180;58740;50.672;18.690;2023-03-03T01:41:05;99257.40;;;-0.90
71081;BMP180;58740;50.672;18.690;2023-03-03T01:43:33;99257.20;;;-0.90
71081;BMP180;58740;50.672;18.690;2023-03-03T01:48:38;99255.00;;;-0.90
71081;BMP180;58740;50.672;18.690;2023-03-03T01:51:20;99261.20;;;-0.90
71081;BMP180;58740;50.672;18.690;2023-03-03T01:53:54;99260.60;;;-0.98
71081;BMP180;58740;50.672;18.690;2023-03-03T01:56:24;99265.00;;;-1.00
71081;BMP180;58740;50.672;18.690;2023-03-03T01:59:34;99275.40;;;-1.10
71081;BMP180;58740;50.672;18.690;2023-03-03T02:02:04;99278.40;;;-1.20
71081;BMP180;58740;50.672;18.690;2023-03-03T02:04:34;99278.80;;;-1.22
71081;BMP180;58740;50.672;18.690;2023-03-03T02:07:08;99279.60;;;-1.20
71081;BMP180;58740;50.672;18.690;2023-03-03T02:12:54;99283.00;;;-1.14
71081;BMP180;58740;50.672;18.690;2023-03-03T02:15:32;99279.60;;;-1.10
71081;BMP180;58740;50.672;18.690;2023-03-03T02:18:07;99277.40;;;-0.90
71081;BMP180;58740;50.672;18.690;2023-03-03T02:20:52;99276.60;;;-0.80
71081;BMP180;58740;50.672;18.690;2023-03-03T02:23:30;99275.20;;;-0.80
71081;BMP180;58740;50.672;18.690;2023-03-03T02:26:26;99269.80;;;-0.70
71081;BMP180;58740;50.672;18.690;2023-03-03T02:28:54;99263.60;;;-0.70
71081;BMP180;58740;50.672;18.690;2023-03-03T02:31:27;99264.60;;;-0.70
71081;BMP180;58740;50.672;18.690;2023-03-03T02:33:56;99257.00;;;-0.70
71081;BMP180;58740;50.672;18.690;2023-03-03T02:36:33;99254.20;;;-0.70
71081;BMP180;58740;50.672;18.690;2023-03-03T02:41:45;99241.60;;;-0.70
71081;BMP180;58740;50.672;18.690;2023-03-03T02:44:26;99249.00;;;-0.60
71081;BMP180;58740;50.672;18.690;2023-03-03T02:46:56;99238.80;;;-0.60
71081;BMP180;58740;50.672;18.690;2023-03-03T02:49:27;99243.00;;;-0.50
71081;BMP180;58740;50.672;18.690;2023-03-03T02:51:55;99235.60;;;-0.50
71081;BMP180;58740;50.672;18.690;2023-03-03T02:54:27;99236.80;;;-0.50
71081;BMP180;58740;50.672;18.690;2023-03-03T02:56:58;99234.80;;;-0.46
71081;BMP180;58740;50.672;18.690;2023-03-03T02:59:26;99231.80;;;-0.40
71081;BMP180;58740;50.672;18.690;2023-03-03T03:01:55;99222.60;;;-0.40
71081;BMP180;58740;50.672;18.690;2023-03-03T03:04:25;99221.80;;;-0.50
71081;BMP180;58740;50.672;18.690;2023-03-03T03:06:54;99217.20;;;-0.50
71081;BMP180;58740;50.672;18.690;2023-03-03T03:09:24;99212.60;;;-0.48
71081;BMP180;58740;50.672;18.690;2023-03-03T03:11:52;99213.00;;;-0.40
71081;BMP180;58740;50.672;18.690;2023-03-03T03:14:20;99209.20;;;-0.30
71081;BMP180;58740;50.672;18.690;2023-03-03T03:16:48;99212.00;;;-0.30
71081;BMP180;58740;50.672;18.690;2023-03-03T03:19:16;99213.00;;;-0.30
71081;BMP180;58740;50.672;18.690;2023-03-03T03:21:44;99217.40;;;-0.20
71081;BMP180;58740;50.672;18.690;2023-03-03T03:24:11;99225.60;;;-0.20
71081;BMP180;58740;50.672;18.690;2023-03-03T03:26:39;99226.40;;;-0.20
71081;BMP180;58740;50.672;18.690;2023-03-03T03:29:07;99230.80;;;-0.30
71081;BMP180;58740;50.672;18.690;2023-03-03T03:31:34;99233.20;;;-0.30
71081;BMP180;58740;50.672;18.690;2023-03-03T03:34:03;99240.20;;;-0.30
71081;BMP180;58740;50.672;18.690;2023-03-03T03:36:30;99244.00;;;-0.30
71081;BMP180;58740;50.672;18.690;2023-03-03T03:38:58;99247.40;;;-0.30
71081;BMP180;58740;50.672;18.690;2023-03-03T03:41:29;99246.40;;;-0.30
71081;BMP180;58740;50.672;18.690;2023-03-03T03:43:57;99249.20;;;-0.30
71081;BMP180;58740;50.672;18.690;2023-03-03T03:46:24;99252.20;;;-0.30
71081;BMP180;58740;50.672;18.690;2023-03-03T03:48:52;99249.80;;;-0.38
71081;BMP180;58740;50.672;18.690;2023-03-03T03:51:20;99248.60;;;-0.30
71081;BMP180;58740;50.672;18.690;2023-03-03T03:53:48;99249.60;;;-0.30
71081;BMP180;58740;50.672;18.690;2023-03-03T03:56:15;99248.40;;;-0.30
71081;BMP180;58740;50.672;18.690;2023-03-03T03:58:44;99260.20;;;-0.24
71081;BMP180;58740;50.672;18.690;2023-03-03T04:01:12;99259.80;;;-0.30
71081;BMP180;58740;50.672;18.690;2023-03-03T04:03:40;99261.20;;;-0.30
71081;BMP180;58740;50.672;18.690;2023-03-03T04:06:08;99257.40;;;-0.30
71081;BMP180;58740;50.672;18.690;2023-03-03T04:08:35;99257.40;;;-0.30
71081;BMP180;58740;50.672;18.690;2023-03-03T04:11:03;99250.00;;;-0.30
71081;BMP180;58740;50.672;18.690;2023-03-03T04:13:31;99254.40;;;-0.26
71081;BMP180;58740;50.672;18.690;2023-03-03T04:16:01;99248.60;;;-0.20
71081;BMP180;58740;50.672;18.690;2023-03-03T04:18:29;99231.20;;;-0.10
71081;BMP180;58740;50.672;18.690;2023-03-03T04:20:57;99232.60;;;0.00
71081;BMP180;58740;50.672;18.690;2023-03-03T04:23:25;99230.00;;;0.02
71081;BMP180;58740;50.672;18.690;2023-03-03T04:25:52;99234.80;;;0.10
71081;BMP180;58740;50.672;18.690;2023-03-03T04:28:20;99232.40;;;0.10
71081;BMP180;58740;50.672;18.690;2023-03-03T04:30:48;99229.00;;;0.12
71081;BMP180;58740;50.672;18.690;2023-03-03T04:33:16;99238.80;;;0.20
71081;BMP180;58740;50.672;18.690;2023-03-03T04:35:44;99251.60;;;0.20
71081;BMP180;58740;50.672;18.690;2023-03-03T04:38:12;99240.00;;;0.10
71081;BMP180;58740;50.672;18.690;2023-03-03T04:40:41;99236.20;;;0.10
71081;BMP180;58740;50.672;18.690;2023-03-03T04:43:09;99238.00;;;0.10
71081;BMP180;58740;50.672;18.690;2023-03-03T04:45:37;99235.00;;;0.10
71081;BMP180;58740;50.672;18.690;2023-03-03T04:48:05;99242.80;;;0.12
71081;BMP180;58740;50.672;18.690;2023-03-03T04:50:33;99247.80;;;0.20
71081;BMP180;58740;50.672;18.690;2023-03-03T04:53:01;99246.40;;;0.20
71081;BMP180;58740;50.672;18.690;2023-03-03T04:55:29;99247.00;;;0.20
71081;BMP180;58740;50.672;18.690;2023-03-03T04:57:57;99241.20;;;0.20
71081;BMP180;58740;50.672;18.690;2023-03-03T05:00:24;99245.80;;;0.20
71081;BMP180;58740;50.672;18.690;2023-03-03T05:02:52;99246.00;;;0.24
71081;BMP180;58740;50.672;18.690;2023-03-03T05:05:20;99245.20;;;0.30
71081;BMP180;58740;50.672;18.690;2023-03-03T05:07:48;99245.80;;;0.30
71081;BMP180;58740;50.672;18.690;2023-03-03T05:10:16;99246.60;;;0.30
71081;BMP180;58740;50.672;18.690;2023-03-03T05:12:43;99251.60;;;0.30
71081;BMP180;58740;50.672;18.690;2023-03-03T05:15:12;99251.40;;;0.30
71081;BMP180;58740;50.672;18.690;2023-03-03T05:17:39;99246.80;;;0.30
71081;BMP180;58740;50.672;18.690;2023-03-03T05:20:08;99256.60;;;0.30
71081;BMP180;58740;50.672;18.690;2023-03-03T05:22:37;99257.00;;;0.30
71081;BMP180;58740;50.672;18.690;2023-03-03T05:25:06;99256.40;;;0.30
71081;BMP180;58740;50.672;18.690;2023-03-03T05:27:33;99261.20;;;0.30
71081;BMP180;58740;50.672;18.690;2023-03-03T05:30:01;99267.00;;;0.30
71081;BMP180;58740;50.672;18.690;2023-03-03T05:32:29;99274.40;;;0.32
71081;BMP180;58740;50.672;18.690;2023-03-03T05:34:57;99275.00;;;0.30
71081;BMP180;58740;50.672;18.690;2023-03-03T05:37:25;99278.40;;;0.32
71081;BMP180;58740;50.672;18.690;2023-03-03T05:39:53;99273.00;;;0.40
71081;BMP180;58740;50.672;18.690;2023-03-03T05:42:20;99272.00;;;0.40
71081;BMP180;58740;50.672;18.690;2023-03-03T05:44:48;99275.80;;;0.40
71081;BMP180;58740;50.672;18.690;2023-03-03T05:47:16;99285.20;;;0.40
71081;BMP180;58740;50.672;18.690;2023-03-03T05:49:44;99284.20;;;0.40
71081;BMP180;58740;50.672;18.690;2023-03-03T05:52:11;99280.20;;;0.40
71081;BMP180;58740;50.672;18.690;2023-03-03T05:54:39;99274.00;;;0.50
71081;BMP180;58740;50.672;18.690;2023-03-03T05:57:07;99271.20;;;0.52
71081;BMP180;58740;50.672;18.690;2023-03-03T05:59:34;99263.80;;;0.60
71081;BMP180;58740;50.672;18.690;2023-03-03T06:02:02;99265.60;;;0.70
71081;BMP180;58740;50.672;18.690;2023-03-03T06:04:30;99255.20;;;0.70
71081;BMP180;58740;50.672;18.690;2023-03-03T06:06:58;99259.80;;;0.80
71081;BMP180;58740;50.672;18.690;2023-03-03T06:09:26;99261.00;;;0.80
71081;BMP180;58740;50.672;18.690;2023-03-03T06:11:53;99268.60;;;0.80
71081;BMP180;58740;50.672;18.690;2023-03-03T06:14:22;99284.20;;;0.80
71081;BMP180;58740;50.672;18.690;2023-03-03T06:16:52;99278.00;;;0.80
71081;BMP180;58740;50.672;18.690;2023-03-03T06:19:20;99272.60;;;0.80
71081;BMP180;58740;50.672;18.690;2023-03-03T06:21:48;99274.20;;;0.90
71081;BMP180;58740;50.672;18.690;2023-03-03T06:24:16;99275.00;;;0.90
71081;BMP180;58740;50.672;18.690;2023-03-03T06:26:44;99269.80;;;1.00
71081;BMP180;58740;50.672;18.690;2023-03-03T06:29:11;99272.20;;;1.00
71081;BMP180;58740;50.672;18.690;2023-03-03T06:31:42;99265.40;;;1.00
71081;BMP180;58740;50.672;18.690;2023-03-03T06:34:11;99274.60;;;1.00
71081;BMP180;58740;50.672;18.690;2023-03-03T06:36:39;99268.00;;;1.00
71081;BMP180;58740;50.672;18.690;2023-03-03T06:39:06;99257.40;;;1.00
71081;BMP180;58740;50.672;18.690;2023-03-03T06:41:34;99248.80;;;1.00
71081;BMP180;58740;50.672;18.690;2023-03-03T06:44:02;99256.60;;;1.00
71081;BMP180;58740;50.672;18.690;2023-03-03T06:46:30;99266.20;;;1.00
71081;BMP180;58740;50.672;18.690;2023-03-03T06:48:59;99266.20;;;1.00
71081;BMP180;58740;50.672;18.690;2023-03-03T06:51:36;99268.80;;;1.00
71081;BMP180;58740;50.672;18.690;2023-03-03T06:54:26;99277.60;;;1.00
71081;BMP180;58740;50.672;18.690;2023-03-03T06:57:06;99278.40;;;1.00
71081;BMP180;58740;50.672;18.690;2023-03-03T06:59:37;99274.60;;;1.00
71081;BMP180;58740;50.672;18.690;2023-03-03T07:02:15;99269.20;;;1.00
71081;BMP180;58740;50.672;18.690;2023-03-03T07:04:44;99271.60;;;1.00
71081;BMP180;58740;50.672;18.690;2023-03-03T07:07:19;99264.60;;;1.00
71081;BMP180;58740;50.672;18.690;2023-03-03T07:09:55;99274.00;;;1.00
71081;BMP180;58740;50.672;18.690;2023-03-03T07:12:27;99279.40;;;1.00
71081;BMP180;58740;50.672;18.690;2023-03-03T07:15:17;99277.00;;;1.10
71081;BMP180;58740;50.672;18.690;2023-03-03T07:17:51;99293.60;;;1.10
71081;BMP180;58740;50.672;18.690;2023-03-03T07:20:29;99289.60;;;1.00
71081;BMP180;58740;50.672;18.690;2023-03-03T07:22:59;99284.40;;;1.00
71081;BMP180;58740;50.672;18.690;2023-03-03T07:25:33;99286.20;;;1.00
71081;BMP180;58740;50.672;18.690;2023-03-03T07:30:48;99300.80;;;1.00
71081;BMP180;58740;50.672;18.690;2023-03-03T07:33:45;99295.80;;;1.00
71081;BMP180;58740;50.672;18.690;2023-03-03T07:36:30;99299.20;;;1.10
71081;BMP180;58740;50.672;18.690;2023-03-03T07:42:16;99308.60;;;1.10
71081;BMP180;58740;50.672;18.690;2023-03-03T07:44:49;99314.40;;;1.10
71081;BMP180;58740;50.672;18.690;2023-03-03T07:47:26;99315.40;;;1.10
71081;BMP180;58740;50.672;18.690;2023-03-03T07:50:06;99311.40;;;1.10
71081;BMP180;58740;50.672;18.690;2023-03-03T07:52:54;99306.20;;;1.10
71081;BMP180;58740;50.672;18.690;2023-03-03T07:55:35;99310.60;;;1.10
71081;BMP180;58740;50.672;18.690;2023-03-03T08:03:44;99326.80;;;1.10
71081;BMP180;58740;50.672;18.690;2023-03-03T08:14:37;99327.80;;;1.20
71081;BMP180;58740;50.672;18.690;2023-03-03T08:17:21;99330.00;;;1.20
71081;BMP180;58740;50.672;18.690;2023-03-03T08:19:52;99328.20;;;1.20
71081;BMP180;58740;50.672;18.690;2023-03-03T08:24:54;99314.80;;;1.20
71081;BMP180;58740;50.672;18.690;2023-03-03T08:27:21;99305.00;;;1.14
71081;BMP180;58740;50.672;18.690;2023-03-03T08:29:49;99298.20;;;1.20
71081;BMP180;58740;50.672;18.690;2023-03-03T08:32:24;99301.00;;;1.20
71081;BMP180;58740;50.672;18.690;2023-03-03T08:34:52;99303.20;;;1.26
71081;BMP180;58740;50.672;18.690;2023-03-03T08:37:20;99307.60;;;1.30
71081;BMP180;58740;50.672;18.690;2023-03-03T08:39:47;99314.40;;;1.30
71081;BMP180;58740;50.672;18.690;2023-03-03T08:42:15;99327.00;;;1.30
71081;BMP180;58740;50.672;18.690;2023-03-03T08:44:43;99324.20;;;1.30
71081;BMP180;58740;50.672;18.690;2023-03-03T08:47:11;99326.20;;;1.20
71081;BMP180;58740;50.672;18.690;2023-03-03T08:49:39;99328.80;;;1.20
71081;BMP180;58740;50.672;18.690;2023-03-03T08:52:07;99327.40;;;1.20
71081;BMP180;58740;50.672;18.690;2023-03-03T08:54:35;99326.20;;;1.20
71081;BMP180;58740;50.672;18.690;2023-03-03T08:57:03;99326.80;;;1.20
71081;BMP180;58740;50.672;18.690;2023-03-03T08:59:30;99333.20;;;1.20
71081;BMP180;58740;50.672;18.690;2023-03-03T09:02:05;99335.40;;;1.20
71081;BMP180;58740;50.672;18.690;2023-03-03T09:04:33;99329.60;;;1.20
71081;BMP180;58740;50.672;18.690;2023-03-03T09:07:01;99330.40;;;1.20
71081;BMP180;58740;50.672;18.690;2023-03-03T09:09:29;99325.00;;;1.20
71081;BMP180;58740;50.672;18.690;2023-03-03T09:12:08;99317.40;;;1.20
71081;BMP180;58740;50.672;18.690;2023-03-03T09:14:39;99318.40;;;1.20
71081;BMP180;58740;50.672;18.690;2023-03-03T09:17:24;99301.60;;;1.20
71081;BMP180;58740;50.672;18.690;2023-03-03T09:19:59;99313.60;;;1.10
71081;BMP180;58740;50.672;18.690;2023-03-03T09:22:27;99307.20;;;1.10
71081;BMP180;58740;50.672;18.690;2023-03-03T09:24:58;99310.00;;;1.20
71081;BMP180;58740;50.672;18.690;2023-03-03T09:27:33;99317.40;;;1.20
71081;BMP180;58740;50.672;18.690;2023-03-03T09:30:36;99320.60;;;1.20
71081;BMP180;58740;50.672;18.690;2023-03-03T09:33:27;99328.80;;;1.28
71081;BMP180;58740;50.672;18.690;2023-03-03T09:36:03;99334.60;;;1.30
71081;BMP180;58740;50.672;18.690;2023-03-03T09:38:39;99336.40;;;1.30
71081;BMP180;58740;50.672;18.690;2023-03-03T09:47:05;99344.80;;;1.20
71081;BMP180;58740;50.672;18.690;2023-03-03T10:10:13;99346.20;;;1.40
71081;BMP180;58740;50.672;18.690;2023-03-03T10:15:56;99350.80;;;1.40
71081;BMP180;58740;50.672;18.690;2023-03-03T10:18:39;99353.20;;;1.40
71081;BMP180;58740;50.672;18.690;2023-03-03T10:21:22;99353.00;;;1.42
71081;BMP180;58740;50.672;18.690;2023-03-03T10:24:12;99358.00;;;1.50
71081;BMP180;58740;50.672;18.690;2023-03-03T10:27:34;99353.40;;;1.60
71081;BMP180;58740;50.672;18.690;2023-03-03T10:33:45;99351.20;;;1.62
71081;BMP180;58740;50.672;18.690;2023-03-03T10:36:40;99352.40;;;1.70
71081;BMP180;58740;50.672;18.690;2023-03-03T10:39:44;99347.20;;;1.70
71081;BMP180;58740;50.672;18.690;2023-03-03T10:45:43;99353.20;;;1.70
71081;BMP180;58740;50.672;18.690;2023-03-03T10:57:32;99333.60;;;1.72
71081;BMP180;58740;50.672;18.690;2023-03-03T11:00:30;99341.20;;;1.80
71081;BMP180;58740;50.672;18.690;2023-03-03T11:09:34;99332.40;;;1.90
71081;BMP180;58740;50.672;18.690;2023-03-03T11:18:48;99323.60;;;1.84
71081;BMP180;58740;50.672;18.690;2023-03-03T11:21:29;99316.20;;;1.90
71081;BMP180;58740;50.672;18.690;2023-03-03T11:24:14;99312.80;;;1.90
71081;BMP180;58740;50.672;18.690;2023-03-03T11:32:26;99320.80;;;2.00
71081;BMP180;58740;50.672;18.690;2023-03-03T11:35:18;99322.00;;;2.08
71081;BMP180;58740;50.672;18.690;2023-03-03T11:38:01;99317.00;;;2.04
71081;BMP180;58740;50.672;18.690;2023-03-03T11:40:52;99318.20;;;2.08
71081;BMP180;58740;50.672;18.690;2023-03-03T11:43:29;99305.60;;;2.10
71081;BMP180;58740;50.672;18.690;2023-03-03T11:46:29;99296.60;;;2.08
71081;BMP180;58740;50.672;18.690;2023-03-03T11:49:35;99300.20;;;2.04
71081;BMP180;58740;50.672;18.690;2023-03-03T11:55:30;99306.80;;;2.04
71081;BMP180;58740;50.672;18.690;2023-03-03T11:58:19;99317.00;;;2.10
71081;BMP180;58740;50.672;18.690;2023-03-03T12:03:56;99308.00;;;2.20
71081;BMP180;58740;50.672;18.690;2023-03-03T12:12:30;99314.40;;;2.10
71081;BMP180;58740;50.672;18.690;2023-03-03T12:23:43;99311.80;;;2.10
71081;BMP180;58740;50.672;18.690;2023-03-03T12:26:36;99305.60;;;2.10
71081;BMP180;58740;50.672;18.690;2023-03-03T12:29:28;99311.80;;;2.10
71081;BMP180;58740;50.672;18.690;2023-03-03T12:32:09;99304.80;;;2.10
71081;BMP180;58740;50.672;18.690;2023-03-03T12:35:10;99307.00;;;2.10
71081;BMP180;58740;50.672;18.690;2023-03-03T12:40:54;99301.60;;;2.10
71081;BMP180;58740;50.672;18.690;2023-03-03T12:56:00;99308.00;;;2.10
71081;BMP180;58740;50.672;18.690;2023-03-03T12:58:58;99300.00;;;2.10
71081;BMP180;58740;50.672;18.690;2023-03-03T13:04:50;99300.00;;;2.10
71081;BMP180;58740;50.672;18.690;2023-03-03T13:07:32;99292.80;;;2.10
71081;BMP180;58740;50.672;18.690;2023-03-03T13:13:26;99287.40;;;2.10
71081;BMP180;58740;50.672;18.690;2023-03-03T13:16:12;99283.60;;;2.10
71081;BMP180;58740;50.672;18.690;2023-03-03T13:22:01;99287.80;;;2.10
71081;BMP180;58740;50.672;18.690;2023-03-03T13:24:53;99287.40;;;2.10
71081;BMP180;58740;50.672;18.690;2023-03-03T13:27:27;99281.80;;;2.10
71081;BMP180;58740;50.672;18.690;2023-03-03T13:30:03;99288.00;;;2.10
71081;BMP180;58740;50.672;18.690;2023-03-03T13:32:48;99284.80;;;2.10
71081;BMP180;58740;50.672;18.690;2023-03-03T13:35:32;99285.80;;;2.10
71081;BMP180;58740;50.672;18.690;2023-03-03T13:38:09;99288.00;;;2.10
71081;BMP180;58740;50.672;18.690;2023-03-03T13:40:44;99281.80;;;2.08
71081;BMP180;58740;50.672;18.690;2023-03-03T13:43:38;99279.40;;;2.04
71081;BMP180;58740;50.672;18.690;2023-03-03T13:46:31;99278.80;;;2.04
71081;BMP180;58740;50.672;18.690;2023-03-03T13:52:20;99286.40;;;2.10
71081;BMP180;58740;50.672;18.690;2023-03-03T14:03:56;99281.00;;;2.10
71081;BMP180;58740;50.672;18.690;2023-03-03T14:06:25;99286.00;;;2.10
71081;BMP180;58740;50.672;18.690;2023-03-03T14:11:55;99290.20;;;2.08
71081;BMP180;58740;50.672;18.690;2023-03-03T14:14:58;99288.80;;;2.00
71081;BMP180;58740;50.672;18.690;2023-03-03T14:17:33;99287.20;;;2.00
71081;BMP180;58740;50.672;18.690;2023-03-03T14:20:27;99285.40;;;2.04
71081;BMP180;58740;50.672;18.690;2023-03-03T14:23:46;99291.60;;;2.10
71081;BMP180;58740;50.672;18.690;2023-03-03T14:26:15;99287.40;;;2.10
71081;BMP180;58740;50.672;18.690;2023-03-03T14:28:47;99286.40;;;2.04
71081;BMP180;58740;50.672;18.690;2023-03-03T14:31:24;99282.80;;;2.00
71081;BMP180;58740;50.672;18.690;2023-03-03T14:36:41;99279.40;;;2.00
71081;BMP180;58740;50.672;18.690;2023-03-03T14:41:53;99266.00;;;2.00
71081;BMP180;58740;50.672;18.690;2023-03-03T14:44:25;99266.00;;;2.00
71081;BMP180;58740;50.672;18.690;2023-03-03T14:47:24;99259.20;;;2.00
71081;BMP180;58740;50.672;18.690;2023-03-03T14:49:57;99256.60;;;2.00
71081;BMP180;58740;50.672;18.690;2023-03-03T14:52:33;99255.60;;;2.10
71081;BMP180;58740;50.672;18.690;2023-03-03T14:55:34;99249.20;;;2.10
71081;BMP180;58740;50.672;18.690;2023-03-03T14:58:30;99246.40;;;2.08
71081;BMP180;58740;50.672;18.690;2023-03-03T15:01:16;99242.40;;;2.00
71081;BMP180;58740;50.672;18.690;2023-03-03T15:06:36;99248.00;;;1.90
71081;BMP180;58740;50.672;18.690;2023-03-03T15:11:58;99242.80;;;1.82
71081;BMP180;58740;50.672;18.690;2023-03-03T15:14:41;99244.00;;;1.90
71081;BMP180;58740;50.672;18.690;2023-03-03T15:20:09;99238.40;;;1.90
71081;BMP180;58740;50.672;18.690;2023-03-03T15:25:52;99238.00;;;1.90
71081;BMP180;58740;50.672;18.690;2023-03-03T15:38:28;99243.80;;;1.80
71081;BMP180;58740;50.672;18.690;2023-03-03T15:41:25;99250.40;;;1.80
71081;BMP180;58740;50.672;18.690;2023-03-03T15:44:18;99250.00;;;1.78
71081;BMP180;58740;50.672;18.690;2023-03-03T15:47:20;99248.40;;;1.80
71081;BMP180;58740;50.672;18.690;2023-03-03T15:50:23;99247.80;;;1.80
71081;BMP180;58740;50.672;18.690;2023-03-03T15:53:11;99257.80;;;1.80
71081;BMP180;58740;50.672;18.690;2023-03-03T16:01:34;99242.60;;;1.80
71081;BMP180;58740;50.672;18.690;2023-03-03T16:04:12;99236.00;;;1.72
71081;BMP180;58740;50.672;18.690;2023-03-03T16:15:38;99227.40;;;1.70
71081;BMP180;58740;50.672;18.690;2023-03-03T16:21:52;99222.80;;;1.80
71081;BMP180;58740;50.672;18.690;2023-03-03T16:31:17;99235.60;;;1.76
71081;BMP180;58740;50.672;18.690;2023-03-03T16:37:03;99230.40;;;1.70
71081;BMP180;58740;50.672;18.690;2023-03-03T16:39:47;99240.80;;;1.70
71081;BMP180;58740;50.672;18.690;2023-03-03T16:42:27;99243.60;;;1.70
71081;BMP180;58740;50.672;18.690;2023-03-03T16:45:25;99240.40;;;1.70
71081;BMP180;58740;50.672;18.690;2023-03-03T16:53:52;99241.80;;;1.80
71081;BMP180;58740;50.672;18.690;2023-03-03T16:56:33;99247.00;;;1.80
71081;BMP180;58740;50.672;18.690;2023-03-03T16:59:37;99246.20;;;1.78
71081;BMP180;58740;50.672;18.690;2023-03-03T17:08:40;99253.60;;;1.70
71081;BMP180;58740;50.672;18.690;2023-03-03T17:11:48;99256.40;;;1.60
71081;BMP180;58740;50.672;18.690;2023-03-03T17:17:00;99256.60;;;1.60
71081;BMP180;58740;50.672;18.690;2023-03-03T17:22:42;99257.40;;;1.70
71081;BMP180;58740;50.672;18.690;2023-03-03T17:28:22;99259.20;;;1.80
71081;BMP180;58740;50.672;18.690;2023-03-03T17:31:11;99256.80;;;1.80
71081;BMP180;58740;50.672;18.690;2023-03-03T17:34:05;99262.00;;;1.80
71081;BMP180;58740;50.672;18.690;2023-03-03T17:40:11;99259.40;;;1.70
71081;BMP180;58740;50.672;18.690;2023-03-03T17:43:10;99257.60;;;1.70
71081;BMP180;58740;50.672;18.690;2023-03-03T17:45:43;99252.60;;;1.70
71081;BMP180;58740;50.672;18.690;2023-03-03T17:51:23;99250.60;;;1.70
71081;BMP180;58740;50.672;18.690;2023-03-03T17:54:18;99252.00;;;1.80
71081;BMP180;58740;50.672;18.690;2023-03-03T18:02:51;99257.60;;;1.80
71081;BMP180;58740;50.672;18.690;2023-03-03T18:08:52;99262.20;;;1.72
71081;BMP180;58740;50.672;18.690;2023-03-03T18:12:10;99253.20;;;1.70
71081;BMP180;58740;50.672;18.690;2023-03-03T18:14:53;99255.20;;;1.70
71081;BMP180;58740;50.672;18.690;2023-03-03T18:22:51;99251.40;;;1.80
71081;BMP180;58740;50.672;18.690;2023-03-03T18:26:01;99250.60;;;1.80
71081;BMP180;58740;50.672;18.690;2023-03-03T18:28:49;99250.80;;;1.80
71081;BMP180;58740;50.672;18.690;2023-03-03T18:31:26;99252.60;;;1.80
71081;BMP180;58740;50.672;18.690;2023-03-03T18:38:58;99260.80;;;1.70
71081;BMP180;58740;50.672;18.690;2023-03-03T18:41:31;99261.80;;;1.60
71081;BMP180;58740;50.672;18.690;2023-03-03T18:44:30;99257.00;;;1.60
71081;BMP180;58740;50.672;18.690;2023-03-03T18:46:58;99253.00;;;1.62
71081;BMP180;58740;50.672;18.690;2023-03-03T18:49:49;99253.40;;;1.60
71081;BMP180;58740;50.672;18.690;2023-03-03T18:57:37;99250.60;;;1.60
71081;BMP180;58740;50.672;18.690;2023-03-03T19:00:23;99247.80;;;1.60
71081;BMP180;58740;50.672;18.690;2023-03-03T19:02:57;99250.40;;;1.60
71081;BMP180;58740;50.672;18.690;2023-03-03T19:05:35;99245.20;;;1.60
71081;BMP180;58740;50.672;18.690;2023-03-03T19:08:45;99245.40;;;1.52
71081;BMP180;58740;50.672;18.690;2023-03-03T19:16:44;99248.80;;;1.50
71081;BMP180;58740;50.672;18.690;2023-03-03T19:19:18;99244.00;;;1.58
71081;BMP180;58740;50.672;18.690;2023-03-03T19:21:51;99244.60;;;1.60
71081;BMP180;58740;50.672;18.690;2023-03-03T19:24:38;99253.40;;;1.60
71081;BMP180;58740;50.672;18.690;2023-03-03T19:27:31;99258.60;;;1.60
71081;BMP180;58740;50.672;18.690;2023-03-03T19:30:27;99262.80;;;1.60